createdAt,value
2018-05-29T00:00:19.022Z,12.13
2018-05-29T00:02:47.156Z,12.87
2018-05-29T00:05:15.380Z,12.83
2018-05-29T00:07:43.511Z,13.57
2018-05-29T00:10:11.631Z,11.93
2018-05-29T00:12:39.773Z,15.17
2018-05-29T00:15:08.683Z,13.83
2018-05-29T00:17:36.837Z,15.00
2018-05-29T00:20:05.733Z,13.37
2018-05-29T00:22:33.863Z,13.90
2018-05-29T00:25:02.033Z,13.23
2018-05-29T00:27:30.151Z,15.77
2018-05-29T00:29:58.347Z,12.60
2018-05-29T00:32:26.477Z,12.87
2018-05-29T00:34:55.363Z,13.43
2018-05-29T00:37:23.587Z,14.00
2018-05-29T00:39:51.713Z,13.10
2018-05-29T00:42:19.872Z,12.57
2018-05-29T00:44:48.093Z,12.97
2018-05-29T00:47:16.233Z,13.67
2018-05-29T00:49:45.140Z,10.60
2018-05-29T00:52:14.064Z,11.67
2018-05-29T00:54:42.189Z,12.60
2018-05-29T00:57:10.397Z,13.77
2018-05-29T00:59:38.573Z,13.67
2018-05-29T01:02:06.710Z,16.73
2018-05-29T01:04:34.837Z,12.20
2018-05-29T01:07:02.959Z,14.20
2018-05-29T01:09:31.115Z,12.27
2018-05-29T01:11:59.261Z,15.30
2018-05-29T01:14:27.426Z,13.13
2018-05-29T01:16:55.596Z,14.03
2018-05-29T01:19:23.772Z,14.90
2018-05-29T01:21:51.937Z,15.47
2018-05-29T01:24:20.123Z,15.30
2018-05-29T01:26:48.295Z,14.10
2018-05-29T01:29:16.449Z,15.70
2018-05-29T01:31:44.643Z,13.50
2018-05-29T01:34:12.809Z,11.83
2018-05-29T01:36:40.937Z,17.30
2018-05-29T01:39:09.062Z,13.10
2018-05-29T01:41:37.215Z,15.77
2018-05-29T01:44:06.106Z,12.83
2018-05-29T01:46:34.226Z,12.93
2018-05-29T01:49:02.477Z,12.43
2018-05-29T01:51:30.597Z,17.57
2018-05-29T01:53:58.759Z,12.87
2018-05-29T01:56:26.884Z,14.20
2018-05-29T01:58:55.174Z,13.03
2018-05-29T02:01:23.308Z,12.23
2018-05-29T02:03:52.228Z,14.93
2018-05-29T02:06:20.345Z,15.33
2018-05-29T02:08:48.587Z,14.20
2018-05-29T02:11:16.728Z,14.13
2018-05-29T02:13:45.642Z,14.57
2018-05-29T02:16:14.343Z,13.73
2018-05-29T02:18:42.476Z,15.77
2018-05-29T02:21:29.304Z,14.07
2018-05-29T02:23:57.452Z,17.97
2018-05-29T02:26:25.573Z,14.90
2018-05-29T02:28:53.742Z,17.33
2018-05-29T02:31:22.020Z,14.03
2018-05-29T02:33:50.172Z,14.53
2018-05-29T02:36:19.063Z,15.37
2018-05-29T02:38:47.209Z,13.63
2018-05-29T02:41:15.396Z,14.57
2018-05-29T02:43:43.721Z,11.87
2018-05-29T02:46:11.835Z,13.87
2018-05-29T02:48:40.746Z,12.30
2018-05-29T02:51:09.652Z,21.27
2018-05-29T02:53:37.820Z,16.33
2018-05-29T02:56:05.962Z,13.47
2018-05-29T02:58:35.596Z,13.13
2018-05-29T03:01:03.736Z,13.07
2018-05-29T03:03:31.876Z,13.10
2018-05-29T03:06:00.003Z,18.37
2018-05-29T03:08:28.902Z,17.67
2018-05-29T03:10:57.814Z,13.80
2018-05-29T03:13:25.959Z,12.77
2018-05-29T03:15:55.286Z,13.80
2018-05-29T03:18:23.421Z,13.43
2018-05-29T03:20:51.568Z,16.10
2018-05-29T03:23:19.684Z,13.60
2018-05-29T03:25:48.708Z,15.83
2018-05-29T03:28:16.864Z,16.90
2018-05-29T03:30:45.718Z,14.53
2018-05-29T03:33:13.842Z,16.07
2018-05-29T03:35:41.979Z,20.07
2018-05-29T03:38:10.900Z,14.23
2018-05-29T03:40:39.034Z,18.90
2018-05-29T03:43:07.203Z,18.00
2018-05-29T03:45:35.339Z,17.90
2018-05-29T03:48:03.472Z,14.83
2018-05-29T03:50:32.359Z,18.80
2018-05-29T03:53:01.267Z,18.77
2018-05-29T03:55:29.467Z,15.73
2018-05-29T03:57:57.585Z,17.67
2018-05-29T04:00:25.716Z,16.13
2018-05-29T04:02:53.886Z,20.50
2018-05-29T04:05:22.050Z,16.27
2018-05-29T04:07:50.179Z,18.30
2018-05-29T04:10:18.385Z,15.53
2018-05-29T04:12:46.561Z,18.03
2018-05-29T04:15:14.715Z,17.87
2018-05-29T04:17:43.632Z,15.27
2018-05-29T04:20:11.757Z,15.53
2018-05-29T04:22:39.911Z,17.27
2018-05-29T04:25:08.147Z,17.00
2018-05-29T04:27:36.321Z,16.47
2018-05-29T04:30:04.447Z,17.20
2018-05-29T04:32:32.589Z,18.23
2018-05-29T04:35:00.739Z,18.57
2018-05-29T04:37:28.879Z,17.53
2018-05-29T04:39:57.101Z,16.67
2018-05-29T04:42:25.223Z,17.60
2018-05-29T04:44:53.371Z,17.50
2018-05-29T04:47:21.504Z,15.37
2018-05-29T04:49:49.674Z,15.73
2018-05-29T04:52:17.805Z,21.57
2018-05-29T04:54:46.045Z,19.00
2018-05-29T04:57:14.191Z,17.63
2018-05-29T04:59:42.393Z,20.50
2018-05-29T05:02:10.514Z,17.60
2018-05-29T05:04:38.683Z,18.73
2018-05-29T05:07:06.823Z,18.67
2018-05-29T05:09:35.005Z,19.47
2018-05-29T05:12:03.250Z,20.87
2018-05-29T05:14:31.409Z,19.93
2018-05-29T05:17:00.300Z,20.60
2018-05-29T05:19:28.441Z,20.67
2018-05-29T05:21:56.623Z,23.43
2018-05-29T05:24:25.140Z,19.93
2018-05-29T05:26:53.309Z,21.77
2018-05-29T05:29:21.432Z,25.10
2018-05-29T05:31:49.570Z,23.97
2018-05-29T05:34:17.702Z,22.73
2018-05-29T05:36:46.613Z,26.33
2018-05-29T05:39:15.517Z,25.30
2018-05-29T05:41:43.648Z,26.43
2018-05-29T05:44:11.879Z,25.77
2018-05-29T05:46:40.164Z,28.93
2018-05-29T05:49:08.325Z,25.97
2018-05-29T05:51:36.473Z,26.53
2018-05-29T05:54:05.490Z,25.47
2018-05-29T05:56:33.680Z,25.57
2018-05-29T05:59:01.813Z,29.50
2018-05-29T06:01:30.753Z,29.27
2018-05-29T06:03:58.876Z,28.67
2018-05-29T06:06:27.906Z,32.37
2018-05-29T06:08:56.044Z,28.83
2018-05-29T06:11:24.940Z,30.60
2018-05-29T06:13:53.144Z,32.20
2018-05-29T06:16:21.296Z,31.03
2018-05-29T06:18:49.423Z,30.10
2018-05-29T06:21:17.548Z,30.47
2018-05-29T06:23:45.835Z,30.60
2018-05-29T06:26:14.013Z,36.60
2018-05-29T06:28:42.144Z,32.97
2018-05-29T06:31:11.046Z,31.03
2018-05-29T06:33:39.955Z,35.43
2018-05-29T06:36:08.141Z,34.47
2018-05-29T06:38:36.294Z,36.93
2018-05-29T06:41:04.388Z,33.37
2018-05-29T06:43:32.533Z,33.43
2018-05-29T06:46:01.451Z,39.33
2018-05-29T06:48:29.584Z,34.07
2018-05-29T06:50:57.732Z,36.93
2018-05-29T06:53:25.959Z,33.67
2018-05-29T06:55:54.565Z,36.43
2018-05-29T06:58:22.680Z,38.23
2018-05-29T07:00:50.822Z,35.33
2018-05-29T07:03:18.978Z,35.67
2018-05-29T07:05:47.120Z,36.17
2018-05-29T07:08:16.048Z,35.50
2018-05-29T07:10:44.679Z,36.17
2018-05-29T07:13:13.595Z,37.50
2018-05-29T07:15:42.499Z,37.60
2018-05-29T07:18:10.673Z,36.37
2018-05-29T07:20:38.799Z,37.23
2018-05-29T07:23:07.025Z,36.13
2018-05-29T07:25:35.170Z,37.93
2018-05-29T07:28:04.199Z,39.23
2018-05-29T07:30:32.323Z,36.77
2018-05-29T07:33:00.439Z,37.63
2018-05-29T07:35:28.571Z,38.07
2018-05-29T07:37:57.495Z,39.40
2018-05-29T07:40:25.627Z,40.83
2018-05-29T07:42:53.837Z,41.03
2018-05-29T07:45:22.017Z,42.40
2018-05-29T07:47:50.143Z,70.23
2018-05-29T07:50:19.935Z,55.50
2018-05-29T07:52:48.077Z,42.40
2018-05-29T07:55:16.263Z,41.83
2018-05-29T07:57:44.505Z,39.70
2018-05-29T08:00:13.397Z,42.93
2018-05-29T08:02:42.322Z,40.30
2018-05-29T08:05:10.508Z,42.27
2018-05-29T08:07:38.645Z,42.83
2018-05-29T08:10:06.780Z,40.83
2018-05-29T08:12:34.900Z,41.73
2018-05-29T08:15:03.061Z,41.40
2018-05-29T08:17:32.085Z,40.50
2018-05-29T08:20:00.221Z,43.67
2018-05-29T08:22:29.156Z,42.60
2018-05-29T08:24:57.316Z,40.20
2018-05-29T08:27:25.513Z,42.80
2018-05-29T08:29:53.773Z,41.67
2018-05-29T08:32:21.928Z,42.60
2018-05-29T08:34:50.105Z,43.23
2018-05-29T08:37:18.386Z,46.87
2018-05-29T08:39:46.513Z,45.57
2018-05-29T08:42:14.646Z,43.73
2018-05-29T08:44:42.791Z,46.03
2018-05-29T08:47:11.742Z,46.20
2018-05-29T08:49:39.984Z,45.13
2018-05-29T08:52:08.093Z,43.47
2018-05-29T08:54:36.333Z,43.17
2018-05-29T08:57:04.456Z,44.73
2018-05-29T08:59:32.660Z,45.27
2018-05-29T09:02:00.837Z,46.13
2018-05-29T09:04:28.969Z,43.63
2018-05-29T09:06:57.203Z,46.37
2018-05-29T09:09:25.352Z,47.13
2018-05-29T09:11:53.527Z,45.10
2018-05-29T09:14:21.636Z,48.80
2018-05-29T09:16:49.780Z,47.97
2018-05-29T09:19:17.932Z,49.53
2018-05-29T09:21:46.857Z,52.20
2018-05-29T09:24:15.003Z,47.33
2018-05-29T09:26:43.896Z,49.50
2018-05-29T09:29:12.906Z,48.27
2018-05-29T09:31:41.064Z,50.30
2018-05-29T09:34:09.953Z,51.23
2018-05-29T09:36:38.853Z,51.07
2018-05-29T09:39:07.136Z,51.20
2018-05-29T09:41:35.309Z,51.30
2018-05-29T09:44:03.402Z,50.00
2018-05-29T09:46:31.656Z,49.77
2018-05-29T09:48:59.818Z,50.43
2018-05-29T09:51:28.703Z,45.37
2018-05-29T09:53:57.630Z,48.77
2018-05-29T09:56:25.904Z,49.17
2018-05-29T09:58:54.074Z,48.77
2018-05-29T10:01:22.214Z,51.13
2018-05-29T10:03:51.157Z,48.13
2018-05-29T10:06:19.293Z,49.27
2018-05-29T10:08:48.265Z,50.27
2018-05-29T10:11:16.518Z,47.93
2018-05-29T10:13:44.652Z,52.60
2018-05-29T10:16:12.834Z,50.27
2018-05-29T10:18:41.007Z,52.80
2018-05-29T10:21:09.147Z,54.73
2018-05-29T10:23:38.091Z,48.27
2018-05-29T10:26:06.276Z,49.17
2018-05-29T10:28:34.465Z,49.93
2018-05-29T10:31:02.616Z,51.90
2018-05-29T10:33:30.757Z,53.17
2018-05-29T10:35:58.880Z,55.73
2018-05-29T10:38:27.219Z,55.27
2018-05-29T10:40:55.339Z,51.17
2018-05-29T10:43:23.465Z,57.70
2018-05-29T10:45:51.622Z,53.17
2018-05-29T10:48:19.769Z,56.07
2018-05-29T10:50:48.661Z,58.03
2018-05-29T10:53:17.703Z,59.43
2018-05-29T10:55:45.973Z,57.80
2018-05-29T10:58:14.095Z,57.17
2018-05-29T11:00:42.269Z,56.77
2018-05-29T11:03:10.391Z,56.00
2018-05-29T11:05:38.509Z,57.37
2018-05-29T11:08:08.255Z,56.47
2018-05-29T11:10:36.395Z,50.50
2018-05-29T11:13:04.625Z,45.90
2018-05-29T11:15:32.746Z,46.83
2018-05-29T11:18:00.885Z,46.03
2018-05-29T11:20:29.205Z,47.27
2018-05-29T11:22:58.097Z,47.17
2018-05-29T11:25:27.013Z,46.90
2018-05-29T11:27:55.153Z,45.93
2018-05-29T11:30:23.307Z,45.27
2018-05-29T11:32:51.445Z,47.67
2018-05-29T11:35:19.574Z,47.70
2018-05-29T11:37:47.741Z,50.13
2018-05-29T11:40:15.953Z,73.87
2018-05-29T11:42:44.083Z,51.67
2018-05-29T11:45:12.311Z,45.07
2018-05-29T11:47:40.441Z,44.77
2018-05-29T11:50:08.591Z,39.53
2018-05-29T11:52:36.947Z,42.63
2018-05-29T11:55:05.123Z,41.50
2018-05-29T11:57:33.249Z,47.70
2018-05-29T12:00:01.394Z,48.57
2018-05-29T12:02:29.514Z,36.70
2018-05-29T12:04:57.702Z,34.93
2018-05-29T12:07:25.872Z,32.47
2018-05-29T12:09:54.017Z,34.20
2018-05-29T12:12:25.640Z,28.63
2018-05-29T12:14:53.768Z,25.13
2018-05-29T12:17:21.964Z,23.60
2018-05-29T12:19:50.122Z,28.67
2018-05-29T12:22:18.449Z,18.87
2018-05-29T12:24:46.556Z,18.20
2018-05-29T12:27:15.478Z,15.13
2018-05-29T12:29:43.638Z,17.03
2018-05-29T12:32:11.928Z,20.57
2018-05-29T12:34:40.044Z,16.90
2018-05-29T12:37:09.686Z,15.80
2018-05-29T12:39:37.888Z,14.87
2018-05-29T12:42:06.054Z,13.37
2018-05-29T12:44:34.234Z,13.03
2018-05-29T12:47:02.348Z,13.20
2018-05-29T12:49:30.512Z,15.67
2018-05-29T12:51:58.637Z,11.40
2018-05-29T12:54:26.760Z,11.53
2018-05-29T12:56:54.992Z,12.50
2018-05-29T12:59:23.140Z,13.30
2018-05-29T13:01:52.120Z,16.37
2018-05-29T13:04:20.251Z,18.70
2018-05-29T13:06:48.417Z,19.53
2018-05-29T13:09:16.582Z,19.13
2018-05-29T13:11:44.762Z,19.07
2018-05-29T13:14:12.916Z,24.53
2018-05-29T13:16:41.064Z,21.73
2018-05-29T13:19:09.212Z,31.77
2018-05-29T13:21:37.457Z,21.73
2018-05-29T13:24:05.580Z,21.50
2018-05-29T13:26:33.820Z,21.57
2018-05-29T13:29:01.992Z,19.17
2018-05-29T13:31:30.360Z,19.07
2018-05-29T13:33:58.561Z,17.83
2018-05-29T13:36:26.682Z,16.73
2018-05-29T13:38:55.700Z,17.77
2018-05-29T13:41:23.977Z,17.83
2018-05-29T13:43:52.151Z,20.93
2018-05-29T13:46:20.429Z,19.60
2018-05-29T13:48:48.567Z,16.87
2018-05-29T13:51:17.521Z,19.27
2018-05-29T13:53:45.652Z,19.37
2018-05-29T13:56:15.857Z,18.73
2018-05-29T13:58:44.065Z,18.93
2018-05-29T14:01:12.217Z,19.00
2018-05-29T14:03:41.127Z,17.87
2018-05-29T14:06:09.250Z,17.87
2018-05-29T14:08:37.471Z,20.37
2018-05-29T14:11:05.649Z,16.93
2018-05-29T14:13:33.825Z,14.90
2018-05-29T14:16:01.999Z,13.47
2018-05-29T14:18:30.145Z,14.00
2018-05-29T14:20:59.125Z,12.27
2018-05-29T14:23:27.248Z,10.60
2018-05-29T14:25:55.448Z,10.03
2018-05-29T14:28:23.549Z,9.67
2018-05-29T14:30:52.477Z,7.03
2018-05-29T14:33:20.635Z,8.57
2018-05-29T14:35:48.755Z,9.57
2018-05-29T14:38:16.895Z,9.57
2018-05-29T14:40:45.039Z,6.83
2018-05-29T14:43:13.955Z,7.83
2018-05-29T14:45:42.109Z,7.23
2018-05-29T14:48:11.021Z,8.70
2018-05-29T14:50:39.175Z,6.67
2018-05-29T14:53:08.183Z,11.13
2018-05-29T14:55:36.302Z,8.13
2018-05-29T14:58:04.439Z,8.20
2018-05-29T15:00:32.601Z,8.60
2018-05-29T15:03:00.767Z,10.47
2018-05-29T15:05:29.650Z,9.03
2018-05-29T15:07:58.571Z,12.93
2018-05-29T15:10:26.762Z,11.33
2018-05-29T15:12:55.025Z,9.43
2018-05-29T15:15:23.149Z,11.87
2018-05-29T15:17:51.272Z,6.10
2018-05-29T15:20:19.443Z,8.73
2018-05-29T15:22:47.566Z,7.73
2018-05-29T15:25:15.775Z,6.00
2018-05-29T15:27:43.902Z,6.83
2018-05-29T15:30:12.048Z,8.57
2018-05-29T15:32:40.329Z,8.63
2018-05-29T15:35:08.465Z,9.83
2018-05-29T15:37:36.593Z,6.70
2018-05-29T15:40:04.834Z,14.90
2018-05-29T15:42:32.956Z,8.40
2018-05-29T15:45:01.184Z,8.77
2018-05-29T15:47:29.364Z,5.70
2018-05-29T15:49:57.522Z,13.87
2018-05-29T15:52:25.682Z,8.83
2018-05-29T15:54:53.980Z,8.17
2018-05-29T15:57:22.140Z,7.53
2018-05-29T15:59:50.278Z,5.47
2018-05-29T16:02:18.499Z,8.43
2018-05-29T16:04:46.608Z,9.17
2018-05-29T16:07:14.728Z,8.53
2018-05-29T16:09:42.890Z,7.17
2018-05-29T16:12:11.787Z,5.10
2018-05-29T16:14:40.674Z,6.97
2018-05-29T16:17:09.560Z,7.60
2018-05-29T16:19:38.498Z,10.00
2018-05-29T16:22:06.668Z,6.97
2018-05-29T16:24:35.492Z,6.63
2018-05-29T16:27:05.132Z,7.33
2018-05-29T16:29:35.074Z,6.57
2018-05-29T16:32:03.228Z,8.07
2018-05-29T16:34:31.368Z,8.37
2018-05-29T16:36:59.594Z,7.50
2018-05-29T16:39:27.716Z,9.93
2018-05-29T16:41:56.771Z,7.83
2018-05-29T16:44:24.919Z,6.43
2018-05-29T16:46:53.049Z,6.47
2018-05-29T16:49:21.171Z,6.23
2018-05-29T16:51:49.351Z,6.30
2018-05-29T16:54:17.507Z,6.87
2018-05-29T16:56:46.521Z,5.93
2018-05-29T16:59:14.634Z,8.30
2018-05-29T17:01:42.809Z,5.50
2018-05-29T17:04:11.046Z,5.50
2018-05-29T17:06:39.209Z,4.93
2018-05-29T17:09:07.334Z,6.10
2018-05-29T17:11:36.988Z,7.50
2018-05-29T17:14:05.177Z,7.50
2018-05-29T17:16:33.451Z,6.73
2018-05-29T17:19:01.666Z,12.73
2018-05-29T17:21:29.800Z,4.93
2018-05-29T17:23:57.951Z,5.90
2018-05-29T17:26:26.864Z,6.77
2018-05-29T17:28:55.047Z,6.60
2018-05-29T17:31:23.217Z,5.70
2018-05-29T17:33:52.514Z,7.53
2018-05-29T17:36:21.101Z,10.03
2018-05-29T17:38:49.231Z,5.93
2018-05-29T17:41:18.388Z,4.93
2018-05-29T17:43:46.575Z,5.67
2018-05-29T17:46:14.700Z,7.27
2018-05-29T17:48:42.823Z,5.70
2018-05-29T17:51:10.997Z,8.03
2018-05-29T17:53:39.135Z,7.00
2018-05-29T17:56:07.256Z,5.97
2018-05-29T17:58:36.157Z,6.73
2018-05-29T18:01:05.415Z,7.63
2018-05-29T18:03:33.694Z,10.43
2018-05-29T18:06:02.105Z,7.17
2018-05-29T18:08:30.322Z,7.47
2018-05-29T18:10:58.479Z,7.93
2018-05-29T18:13:27.381Z,7.70
2018-05-29T18:15:55.543Z,6.97
2018-05-29T18:18:23.667Z,9.10
2018-05-29T18:20:51.882Z,6.97
2018-05-29T18:23:21.042Z,5.73
2018-05-29T18:25:49.184Z,9.67
2018-05-29T18:28:17.340Z,5.80
2018-05-29T18:30:45.551Z,7.73
2018-05-29T18:33:13.721Z,8.73
2018-05-29T18:35:41.905Z,9.33
2018-05-29T18:38:10.043Z,8.13
2018-05-29T18:40:38.181Z,7.60
2018-05-29T18:43:06.306Z,9.67
2018-05-29T18:45:35.080Z,7.73
2018-05-29T18:48:03.274Z,6.23
2018-05-29T18:50:31.408Z,9.27
2018-05-29T18:53:00.443Z,6.37
2018-05-29T18:55:28.570Z,6.93
2018-05-29T18:57:58.492Z,8.33
2018-05-29T19:00:26.596Z,9.83
2018-05-29T19:02:54.736Z,8.60
2018-05-29T19:05:23.644Z,7.63
2018-05-29T19:07:51.841Z,11.03
2018-05-29T19:10:20.015Z,7.80
2018-05-29T19:12:48.154Z,8.77
2018-05-29T19:15:17.166Z,6.43
2018-05-29T19:17:45.338Z,7.87
2018-05-29T19:20:13.628Z,8.40
2018-05-29T19:22:41.776Z,9.60
2018-05-29T19:25:10.694Z,8.30
2018-05-29T19:27:39.169Z,7.83
2018-05-29T19:30:07.353Z,7.40
2018-05-29T19:32:35.517Z,6.93
2018-05-29T19:35:03.646Z,6.73
2018-05-29T19:37:32.655Z,6.80
2018-05-29T19:40:01.606Z,8.60
2018-05-29T19:42:29.848Z,6.83
2018-05-29T19:44:58.024Z,6.47
2018-05-29T19:47:26.215Z,6.30
2018-05-29T19:49:56.944Z,7.13
2018-05-29T19:52:25.177Z,5.33
2018-05-29T19:54:53.299Z,7.33
2018-05-29T19:57:21.431Z,8.83
2018-05-29T19:59:50.394Z,8.37
2018-05-29T20:02:18.535Z,7.63
2018-05-29T20:04:46.799Z,6.17
2018-05-29T20:07:14.931Z,7.97
2018-05-29T20:09:43.145Z,6.17
2018-05-29T20:12:11.265Z,5.63
2018-05-29T20:14:40.295Z,7.87
2018-05-29T20:17:08.454Z,6.80
2018-05-29T20:19:36.529Z,8.33
2018-05-29T20:22:05.543Z,7.60
2018-05-29T20:24:33.935Z,6.90
2018-05-29T20:27:02.069Z,7.07
2018-05-29T20:29:30.979Z,7.73
2018-05-29T20:31:59.125Z,6.57
2018-05-29T20:34:27.245Z,9.70
2018-05-29T20:36:55.412Z,11.40
2018-05-29T20:39:23.525Z,9.27
2018-05-29T20:41:51.640Z,11.07
2018-05-29T20:44:19.822Z,8.13
2018-05-29T20:46:47.957Z,7.53
2018-05-29T20:49:16.081Z,8.37
2018-05-29T20:51:44.203Z,10.70
2018-05-29T20:54:13.130Z,12.17
2018-05-29T20:56:41.316Z,10.33
2018-05-29T20:59:09.507Z,8.67
2018-05-29T21:01:37.654Z,9.93
2018-05-29T21:04:05.789Z,10.20
2018-05-29T21:06:34.684Z,9.47
2018-05-29T21:09:02.832Z,11.23
2018-05-29T21:11:30.954Z,9.97
2018-05-29T21:13:59.845Z,10.67
2018-05-29T21:16:28.776Z,10.83
2018-05-29T21:18:56.896Z,7.93
2018-05-29T21:21:25.808Z,9.80
2018-05-29T21:23:53.953Z,12.70
2018-05-29T21:26:22.090Z,9.50
2018-05-29T21:28:50.216Z,9.27
2018-05-29T21:31:19.102Z,11.03
2018-05-29T21:33:48.018Z,12.03
2018-05-29T21:36:16.189Z,11.83
2018-05-29T21:38:44.357Z,11.00
2018-05-29T21:41:12.502Z,12.17
2018-05-29T21:43:40.623Z,10.13
2018-05-29T21:46:08.779Z,9.63
2018-05-29T21:48:36.891Z,11.83
2018-05-29T21:51:05.017Z,13.77
2018-05-29T21:53:33.233Z,10.37
2018-05-29T21:56:01.378Z,14.93
2018-05-29T21:58:29.501Z,10.93
2018-05-29T22:00:57.617Z,12.00
2018-05-29T22:03:25.895Z,12.07
2018-05-29T22:05:54.043Z,10.20
2018-05-29T22:08:22.963Z,14.37
2018-05-29T22:10:51.116Z,13.27
2018-05-29T22:13:20.017Z,11.53
2018-05-29T22:15:48.160Z,12.27
2018-05-29T22:18:16.284Z,15.13
2018-05-29T22:20:44.403Z,11.37
2018-05-29T22:23:12.540Z,10.37
2018-05-29T22:25:40.676Z,14.63
2018-05-29T22:28:09.594Z,10.73
2018-05-29T22:30:37.739Z,10.57
2018-05-29T22:33:05.945Z,11.57
2018-05-29T22:35:34.080Z,10.87
2018-05-29T22:38:03.022Z,11.03
2018-05-29T22:40:31.156Z,14.43
2018-05-29T22:43:00.066Z,11.77
2018-05-29T22:45:28.186Z,12.23
2018-05-29T22:47:56.324Z,10.27
2018-05-29T22:50:24.487Z,9.43
2018-05-29T22:52:52.614Z,11.90
2018-05-29T22:55:20.759Z,13.80
2018-05-29T22:57:48.921Z,13.03
2018-05-29T23:00:17.100Z,12.90
2018-05-29T23:02:45.213Z,12.33
2018-05-29T23:05:13.345Z,11.57
2018-05-29T23:07:41.594Z,11.80
2018-05-29T23:10:09.783Z,11.63
2018-05-29T23:12:37.893Z,12.77
2018-05-29T23:15:06.115Z,12.33
2018-05-29T23:17:34.269Z,11.50
2018-05-29T23:20:03.161Z,11.03
2018-05-29T23:22:32.081Z,14.63
2018-05-29T23:25:00.227Z,15.37
2018-05-29T23:27:29.150Z,12.17
2018-05-29T23:29:57.256Z,12.93
2018-05-29T23:32:25.404Z,10.77
2018-05-29T23:34:54.560Z,11.57
2018-05-29T23:37:23.461Z,10.27
2018-05-29T23:39:51.592Z,13.70
2018-05-29T23:42:19.730Z,12.00
2018-05-29T23:44:47.886Z,12.97
2018-05-29T23:47:16.028Z,12.10
2018-05-29T23:49:44.921Z,13.20
2018-05-29T23:52:13.054Z,11.67
2018-05-29T23:54:41.300Z,12.97
2018-05-29T23:57:09.455Z,13.00
2018-05-29T23:59:38.379Z,14.70
